sensor_id;sensor_type;location;lat;lon;timestamp;P1;durP1;ratioP1;P2;durP2;ratioP2
17696;SDS011;8967;47.984;7.842;2023-05-14T00:00:11;7.30;;;4.38;;
17696;SDS011;8967;47.984;7.842;2023-05-14T00:02:39;4.93;;;4.15;;
17696;SDS011;8967;47.984;7.842;2023-05-14T00:05:06;4.63;;;4.18;;
17696;SDS011;8967;47.984;7.842;2023-05-14T00:07:37;5.55;;;3.83;;
17696;SDS011;8967;47.984;7.842;2023-05-14T00:10:05;4.20;;;3.80;;
17696;SDS011;8967;47.984;7.842;2023-05-14T00:12:33;6.63;;;3.90;;
17696;SDS011;8967;47.984;7.842;2023-05-14T00:15:00;5.80;;;3.67;;
17696;SDS011;8967;47.984;7.842;2023-05-14T00:17:27;7.68;;;3.70;;
17696;SDS011;8967;47.984;7.842;2023-05-14T00:19:54;4.72;;;3.95;;
17696;SDS011;8967;47.984;7.842;2023-05-14T00:22:23;5.85;;;3.80;;
17696;SDS011;8967;47.984;7.842;2023-05-14T00:24:53;4.13;;;3.53;;
17696;SDS011;8967;47.984;7.842;2023-05-14T00:27:21;3.78;;;3.45;;
17696;SDS011;8967;47.984;7.842;2023-05-14T00:29:48;4.38;;;3.42;;
17696;SDS011;8967;47.984;7.842;2023-05-14T00:32:14;4.82;;;3.13;;
17696;SDS011;8967;47.984;7.842;2023-05-14T00:34:41;4.22;;;3.13;;
17696;SDS011;8967;47.984;7.842;2023-05-14T00:37:08;6.22;;;3.03;;
17696;SDS011;8967;47.984;7.842;2023-05-14T00:39:38;4.30;;;2.92;;
17696;SDS011;8967;47.984;7.842;2023-05-14T00:42:05;3.30;;;3.00;;
17696;SDS011;8967;47.984;7.842;2023-05-14T00:44:34;4.40;;;3.25;;
17696;SDS011;8967;47.984;7.842;2023-05-14T00:47:01;2.90;;;2.60;;
17696;SDS011;8967;47.984;7.842;2023-05-14T00:49:28;3.72;;;3.10;;
17696;SDS011;8967;47.984;7.842;2023-05-14T00:51:55;4.80;;;3.13;;
17696;SDS011;8967;47.984;7.842;2023-05-14T00:54:23;6.75;;;3.65;;
17696;SDS011;8967;47.984;7.842;2023-05-14T00:56:52;3.35;;;3.13;;
17696;SDS011;8967;47.984;7.842;2023-05-14T00:59:20;3.50;;;3.17;;
17696;SDS011;8967;47.984;7.842;2023-05-14T01:01:48;4.05;;;3.50;;
17696;SDS011;8967;47.984;7.842;2023-05-14T01:04:15;2.88;;;2.67;;
17696;SDS011;8967;47.984;7.842;2023-05-14T01:06:44;3.50;;;3.20;;
17696;SDS011;8967;47.984;7.842;2023-05-14T01:09:21;3.17;;;2.80;;
17696;SDS011;8967;47.984;7.842;2023-05-14T01:11:53;6.10;;;2.95;;
17696;SDS011;8967;47.984;7.842;2023-05-14T01:14:25;3.40;;;3.08;;
17696;SDS011;8967;47.984;7.842;2023-05-14T01:16:59;4.85;;;3.45;;
17696;SDS011;8967;47.984;7.842;2023-05-14T01:19:34;7.15;;;3.13;;
17696;SDS011;8967;47.984;7.842;2023-05-14T01:22:05;3.65;;;3.15;;
17696;SDS011;8967;47.984;7.842;2023-05-14T01:24:33;5.57;;;3.38;;
17696;SDS011;8967;47.984;7.842;2023-05-14T01:27:00;6.10;;;3.50;;
17696;SDS011;8967;47.984;7.842;2023-05-14T01:29:35;8.70;;;3.47;;
17696;SDS011;8967;47.984;7.842;2023-05-14T01:32:06;6.63;;;4.15;;
17696;SDS011;8967;47.984;7.842;2023-05-14T01:34:37;4.47;;;3.92;;
17696;SDS011;8967;47.984;7.842;2023-05-14T01:37:08;6.63;;;3.47;;
17696;SDS011;8967;47.984;7.842;2023-05-14T01:39:36;3.05;;;2.85;;
17696;SDS011;8967;47.984;7.842;2023-05-14T01:42:07;3.58;;;3.28;;
17696;SDS011;8967;47.984;7.842;2023-05-14T01:44:34;3.78;;;3.05;;
17696;SDS011;8967;47.984;7.842;2023-05-14T01:47:04;5.47;;;3.03;;
17696;SDS011;8967;47.984;7.842;2023-05-14T01:49:31;3.38;;;3.08;;
17696;SDS011;8967;47.984;7.842;2023-05-14T01:51:58;3.30;;;3.00;;
17696;SDS011;8967;47.984;7.842;2023-05-14T01:54:26;4.72;;;2.88;;
17696;SDS011;8967;47.984;7.842;2023-05-14T01:56:53;5.05;;;3.20;;
17696;SDS011;8967;47.984;7.842;2023-05-14T01:59:20;5.35;;;3.28;;
17696;SDS011;8967;47.984;7.842;2023-05-14T02:01:47;5.63;;;3.53;;
17696;SDS011;8967;47.984;7.842;2023-05-14T02:04:14;5.93;;;3.80;;
17696;SDS011;8967;47.984;7.842;2023-05-14T02:06:41;4.70;;;3.47;;
17696;SDS011;8967;47.984;7.842;2023-05-14T02:09:07;5.22;;;3.28;;
17696;SDS011;8967;47.984;7.842;2023-05-14T02:11:39;2.88;;;2.50;;
17696;SDS011;8967;47.984;7.842;2023-05-14T02:14:08;4.47;;;3.03;;
17696;SDS011;8967;47.984;7.842;2023-05-14T02:16:35;8.77;;;2.88;;
17696;SDS011;8967;47.984;7.842;2023-05-14T02:19:02;2.90;;;2.67;;
17696;SDS011;8967;47.984;7.842;2023-05-14T02:21:29;3.28;;;2.60;;
17696;SDS011;8967;47.984;7.842;2023-05-14T02:23:56;5.05;;;2.72;;
17696;SDS011;8967;47.984;7.842;2023-05-14T02:26:23;5.28;;;2.38;;
17696;SDS011;8967;47.984;7.842;2023-05-14T02:28:51;2.92;;;2.63;;
17696;SDS011;8967;47.984;7.842;2023-05-14T02:31:18;3.10;;;2.47;;
17696;SDS011;8967;47.984;7.842;2023-05-14T02:33:45;2.40;;;2.20;;
17696;SDS011;8967;47.984;7.842;2023-05-14T02:36:11;2.53;;;2.33;;
17696;SDS011;8967;47.984;7.842;2023-05-14T02:38:41;3.45;;;2.35;;
17696;SDS011;8967;47.984;7.842;2023-05-14T02:41:07;4.85;;;2.60;;
17696;SDS011;8967;47.984;7.842;2023-05-14T02:43:34;2.35;;;2.15;;
17696;SDS011;8967;47.984;7.842;2023-05-14T02:46:03;4.72;;;2.10;;
17696;SDS011;8967;47.984;7.842;2023-05-14T02:48:30;2.55;;;2.15;;
17696;SDS011;8967;47.984;7.842;2023-05-14T02:50:56;2.97;;;2.55;;
17696;SDS011;8967;47.984;7.842;2023-05-14T02:53:23;2.50;;;2.22;;
17696;SDS011;8967;47.984;7.842;2023-05-14T02:55:50;4.45;;;2.03;;
17696;SDS011;8967;47.984;7.842;2023-05-14T02:58:17;3.35;;;2.63;;
17696;SDS011;8967;47.984;7.842;2023-05-14T03:00:44;3.53;;;2.58;;
17696;SDS011;8967;47.984;7.842;2023-05-14T03:03:12;3.03;;;2.72;;
17696;SDS011;8967;47.984;7.842;2023-05-14T03:05:39;2.70;;;2.45;;
17696;SDS011;8967;47.984;7.842;2023-05-14T03:08:06;2.78;;;2.58;;
17696;SDS011;8967;47.984;7.842;2023-05-14T03:10:33;4.20;;;2.75;;
17696;SDS011;8967;47.984;7.842;2023-05-14T03:12:59;2.88;;;2.58;;
17696;SDS011;8967;47.984;7.842;2023-05-14T03:15:26;6.53;;;2.60;;
17696;SDS011;8967;47.984;7.842;2023-05-14T03:17:54;3.20;;;2.90;;
17696;SDS011;8967;47.984;7.842;2023-05-14T03:20:22;3.25;;;2.90;;
17696;SDS011;8967;47.984;7.842;2023-05-14T03:22:51;4.60;;;3.65;;
17696;SDS011;8967;47.984;7.842;2023-05-14T03:25:18;5.25;;;3.53;;
17696;SDS011;8967;47.984;7.842;2023-05-14T03:27:45;4.63;;;3.50;;
17696;SDS011;8967;47.984;7.842;2023-05-14T03:30:12;5.50;;;3.88;;
17696;SDS011;8967;47.984;7.842;2023-05-14T03:32:39;5.00;;;3.28;;
17696;SDS011;8967;47.984;7.842;2023-05-14T03:35:07;3.85;;;3.55;;
17696;SDS011;8967;47.984;7.842;2023-05-14T03:37:36;4.20;;;2.92;;
17696;SDS011;8967;47.984;7.842;2023-05-14T03:40:03;4.50;;;2.92;;
17696;SDS011;8967;47.984;7.842;2023-05-14T03:42:31;4.03;;;2.78;;
17696;SDS011;8967;47.984;7.842;2023-05-14T03:44:58;3.95;;;2.95;;
17696;SDS011;8967;47.984;7.842;2023-05-14T03:47:27;3.25;;;2.47;;
17696;SDS011;8967;47.984;7.842;2023-05-14T03:49:55;2.75;;;2.33;;
17696;SDS011;8967;47.984;7.842;2023-05-14T03:52:22;13.07;;;2.88;;
17696;SDS011;8967;47.984;7.842;2023-05-14T03:54:53;2.63;;;2.42;;
17696;SDS011;8967;47.984;7.842;2023-05-14T03:57:19;2.95;;;2.42;;
17696;SDS011;8967;47.984;7.842;2023-05-14T03:59:46;3.30;;;2.63;;
17696;SDS011;8967;47.984;7.842;2023-05-14T04:02:17;2.63;;;2.42;;
17696;SDS011;8967;47.984;7.842;2023-05-14T04:04:45;3.33;;;2.45;;
17696;SDS011;8967;47.984;7.842;2023-05-14T04:07:17;4.43;;;3.45;;
17696;SDS011;8967;47.984;7.842;2023-05-14T04:09:45;2.88;;;2.67;;
17696;SDS011;8967;47.984;7.842;2023-05-14T04:12:13;4.15;;;3.20;;
17696;SDS011;8967;47.984;7.842;2023-05-14T04:14:40;6.20;;;3.80;;
17696;SDS011;8967;47.984;7.842;2023-05-14T04:17:07;21.25;;;2.80;;
17696;SDS011;8967;47.984;7.842;2023-05-14T04:19:34;4.10;;;2.80;;
17696;SDS011;8967;47.984;7.842;2023-05-14T04:22:03;2.80;;;2.60;;
17696;SDS011;8967;47.984;7.842;2023-05-14T04:24:30;2.67;;;2.45;;
17696;SDS011;8967;47.984;7.842;2023-05-14T04:26:58;3.78;;;2.60;;
17696;SDS011;8967;47.984;7.842;2023-05-14T04:29:26;4.05;;;2.90;;
17696;SDS011;8967;47.984;7.842;2023-05-14T04:31:53;8.45;;;2.80;;
17696;SDS011;8967;47.984;7.842;2023-05-14T04:34:20;3.20;;;2.90;;
17696;SDS011;8967;47.984;7.842;2023-05-14T04:36:47;3.03;;;2.78;;
17696;SDS011;8967;47.984;7.842;2023-05-14T04:39:14;5.55;;;3.20;;
17696;SDS011;8967;47.984;7.842;2023-05-14T04:41:41;4.15;;;3.50;;
17696;SDS011;8967;47.984;7.842;2023-05-14T04:44:11;3.95;;;3.55;;
17696;SDS011;8967;47.984;7.842;2023-05-14T04:46:39;4.43;;;2.88;;
17696;SDS011;8967;47.984;7.842;2023-05-14T04:49:08;3.60;;;3.28;;
17696;SDS011;8967;47.984;7.842;2023-05-14T04:51:37;4.53;;;3.47;;
17696;SDS011;8967;47.984;7.842;2023-05-14T04:54:04;3.75;;;2.95;;
17696;SDS011;8967;47.984;7.842;2023-05-14T04:56:31;4.70;;;3.10;;
17696;SDS011;8967;47.984;7.842;2023-05-14T04:58:58;4.95;;;2.60;;
17696;SDS011;8967;47.984;7.842;2023-05-14T05:01:25;3.45;;;2.85;;
17696;SDS011;8967;47.984;7.842;2023-05-14T05:03:53;3.15;;;2.85;;
17696;SDS011;8967;47.984;7.842;2023-05-14T05:06:21;3.40;;;3.10;;
17696;SDS011;8967;47.984;7.842;2023-05-14T05:08:48;3.60;;;3.30;;
17696;SDS011;8967;47.984;7.842;2023-05-14T05:11:15;2.78;;;2.58;;
17696;SDS011;8967;47.984;7.842;2023-05-14T05:13:42;4.53;;;2.53;;
17696;SDS011;8967;47.984;7.842;2023-05-14T05:16:09;3.45;;;2.95;;
17696;SDS011;8967;47.984;7.842;2023-05-14T05:18:35;3.53;;;2.80;;
17696;SDS011;8967;47.984;7.842;2023-05-14T05:21:04;2.85;;;2.42;;
17696;SDS011;8967;47.984;7.842;2023-05-14T05:23:31;4.90;;;2.55;;
17696;SDS011;8967;47.984;7.842;2023-05-14T05:25:58;2.78;;;2.50;;
17696;SDS011;8967;47.984;7.842;2023-05-14T05:28:25;2.70;;;2.50;;
17696;SDS011;8967;47.984;7.842;2023-05-14T05:30:52;3.50;;;2.70;;
17696;SDS011;8967;47.984;7.842;2023-05-14T05:33:19;3.05;;;2.40;;
17696;SDS011;8967;47.984;7.842;2023-05-14T05:35:46;3.60;;;2.50;;
17696;SDS011;8967;47.984;7.842;2023-05-14T05:38:15;2.78;;;2.45;;
17696;SDS011;8967;47.984;7.842;2023-05-14T05:40:43;4.18;;;2.85;;
17696;SDS011;8967;47.984;7.842;2023-05-14T05:43:10;2.58;;;2.35;;
17696;SDS011;8967;47.984;7.842;2023-05-14T05:45:38;8.43;;;2.72;;
17696;SDS011;8967;47.984;7.842;2023-05-14T05:48:07;3.60;;;2.55;;
17696;SDS011;8967;47.984;7.842;2023-05-14T05:50:34;2.65;;;2.45;;
17696;SDS011;8967;47.984;7.842;2023-05-14T05:53:00;3.40;;;2.60;;
17696;SDS011;8967;47.984;7.842;2023-05-14T05:55:31;3.50;;;3.05;;
17696;SDS011;8967;47.984;7.842;2023-05-14T05:58:00;3.90;;;2.85;;
17696;SDS011;8967;47.984;7.842;2023-05-14T06:00:27;3.40;;;2.83;;
17696;SDS011;8967;47.984;7.842;2023-05-14T06:02:57;3.45;;;3.13;;
17696;SDS011;8967;47.984;7.842;2023-05-14T06:05:24;2.88;;;2.58;;
17696;SDS011;8967;47.984;7.842;2023-05-14T06:07:51;3.47;;;3.17;;
17696;SDS011;8967;47.984;7.842;2023-05-14T06:10:18;3.40;;;2.75;;
17696;SDS011;8967;47.984;7.842;2023-05-14T06:12:46;3.15;;;2.47;;
17696;SDS011;8967;47.984;7.842;2023-05-14T06:15:13;2.60;;;2.40;;
17696;SDS011;8967;47.984;7.842;2023-05-14T06:17:40;2.65;;;2.38;;
17696;SDS011;8967;47.984;7.842;2023-05-14T06:20:07;4.28;;;2.42;;
17696;SDS011;8967;47.984;7.842;2023-05-14T06:22:38;2.33;;;2.13;;
17696;SDS011;8967;47.984;7.842;2023-05-14T06:25:05;4.07;;;2.53;;
17696;SDS011;8967;47.984;7.842;2023-05-14T06:27:33;2.50;;;2.25;;
17696;SDS011;8967;47.984;7.842;2023-05-14T06:30:04;2.72;;;2.50;;
17696;SDS011;8967;47.984;7.842;2023-05-14T06:32:34;3.15;;;2.85;;
17696;SDS011;8967;47.984;7.842;2023-05-14T06:35:01;3.17;;;2.88;;
17696;SDS011;8967;47.984;7.842;2023-05-14T06:37:28;2.92;;;2.70;;
17696;SDS011;8967;47.984;7.842;2023-05-14T06:39:55;4.07;;;2.95;;
17696;SDS011;8967;47.984;7.842;2023-05-14T06:42:21;2.67;;;2.47;;
17696;SDS011;8967;47.984;7.842;2023-05-14T06:44:48;3.70;;;3.30;;
17696;SDS011;8967;47.984;7.842;2023-05-14T06:47:16;4.20;;;3.70;;
17696;SDS011;8967;47.984;7.842;2023-05-14T06:49:43;5.75;;;3.20;;
17696;SDS011;8967;47.984;7.842;2023-05-14T06:52:10;4.90;;;3.70;;
17696;SDS011;8967;47.984;7.842;2023-05-14T06:54:37;4.07;;;3.60;;
17696;SDS011;8967;47.984;7.842;2023-05-14T06:57:04;4.45;;;4.05;;
17696;SDS011;8967;47.984;7.842;2023-05-14T06:59:31;3.80;;;3.50;;
17696;SDS011;8967;47.984;7.842;2023-05-14T07:01:58;4.53;;;4.10;;
17696;SDS011;8967;47.984;7.842;2023-05-14T07:04:26;4.00;;;3.45;;
17696;SDS011;8967;47.984;7.842;2023-05-14T07:06:53;4.80;;;4.30;;
17696;SDS011;8967;47.984;7.842;2023-05-14T07:09:23;4.57;;;4.13;;
17696;SDS011;8967;47.984;7.842;2023-05-14T07:11:49;4.70;;;4.25;;
17696;SDS011;8967;47.984;7.842;2023-05-14T07:14:16;4.95;;;4.13;;
17696;SDS011;8967;47.984;7.842;2023-05-14T07:16:43;7.05;;;5.68;;
17696;SDS011;8967;47.984;7.842;2023-05-14T07:19:11;6.13;;;4.78;;
17696;SDS011;8967;47.984;7.842;2023-05-14T07:21:39;5.22;;;4.72;;
17696;SDS011;8967;47.984;7.842;2023-05-14T07:24:06;5.75;;;5.20;;
17696;SDS011;8967;47.984;7.842;2023-05-14T07:26:33;8.98;;;6.25;;
17696;SDS011;8967;47.984;7.842;2023-05-14T07:29:00;6.93;;;5.43;;
17696;SDS011;8967;47.984;7.842;2023-05-14T07:31:27;8.35;;;5.38;;
17696;SDS011;8967;47.984;7.842;2023-05-14T07:33:53;6.97;;;5.38;;
17696;SDS011;8967;47.984;7.842;2023-05-14T07:36:20;5.70;;;4.88;;
17696;SDS011;8967;47.984;7.842;2023-05-14T07:38:48;6.28;;;5.60;;
17696;SDS011;8967;47.984;7.842;2023-05-14T07:41:15;6.18;;;5.57;;
17696;SDS011;8967;47.984;7.842;2023-05-14T07:43:42;6.45;;;4.75;;
17696;SDS011;8967;47.984;7.842;2023-05-14T07:46:09;6.68;;;5.07;;
17696;SDS011;8967;47.984;7.842;2023-05-14T07:48:36;5.80;;;5.18;;
17696;SDS011;8967;47.984;7.842;2023-05-14T07:51:03;7.70;;;5.10;;
17696;SDS011;8967;47.984;7.842;2023-05-14T07:53:30;5.30;;;4.57;;
17696;SDS011;8967;47.984;7.842;2023-05-14T07:55:58;6.60;;;5.32;;
17696;SDS011;8967;47.984;7.842;2023-05-14T07:58:25;6.20;;;5.57;;
17696;SDS011;8967;47.984;7.842;2023-05-14T08:00:53;5.95;;;4.82;;
17696;SDS011;8967;47.984;7.842;2023-05-14T08:03:20;6.38;;;5.38;;
17696;SDS011;8967;47.984;7.842;2023-05-14T08:05:47;5.60;;;4.50;;
17696;SDS011;8967;47.984;7.842;2023-05-14T08:08:16;4.95;;;4.50;;
17696;SDS011;8967;47.984;7.842;2023-05-14T08:10:43;6.65;;;5.20;;
17696;SDS011;8967;47.984;7.842;2023-05-14T08:13:11;6.13;;;5.53;;
17696;SDS011;8967;47.984;7.842;2023-05-14T08:15:38;6.38;;;4.95;;
17696;SDS011;8967;47.984;7.842;2023-05-14T08:18:05;7.07;;;4.25;;
17696;SDS011;8967;47.984;7.842;2023-05-14T08:20:32;7.50;;;5.60;;
17696;SDS011;8967;47.984;7.842;2023-05-14T08:22:59;5.57;;;4.32;;
17696;SDS011;8967;47.984;7.842;2023-05-14T08:25:25;5.70;;;4.53;;
17696;SDS011;8967;47.984;7.842;2023-05-14T08:27:52;6.15;;;5.50;;
17696;SDS011;8967;47.984;7.842;2023-05-14T08:30:23;6.97;;;5.03;;
17696;SDS011;8967;47.984;7.842;2023-05-14T08:32:52;5.65;;;4.82;;
17696;SDS011;8967;47.984;7.842;2023-05-14T08:35:19;6.38;;;4.93;;
17696;SDS011;8967;47.984;7.842;2023-05-14T08:37:46;10.25;;;5.90;;
17696;SDS011;8967;47.984;7.842;2023-05-14T08:40:14;6.13;;;4.85;;
17696;SDS011;8967;47.984;7.842;2023-05-14T08:42:41;5.15;;;4.57;;
17696;SDS011;8967;47.984;7.842;2023-05-14T08:45:13;4.97;;;4.43;;
17696;SDS011;8967;47.984;7.842;2023-05-14T08:47:44;6.22;;;4.65;;
17696;SDS011;8967;47.984;7.842;2023-05-14T08:50:14;7.38;;;5.28;;
17696;SDS011;8967;47.984;7.842;2023-05-14T08:52:41;5.80;;;5.20;;
17696;SDS011;8967;47.984;7.842;2023-05-14T08:55:09;9.45;;;5.93;;
17696;SDS011;8967;47.984;7.842;2023-05-14T08:57:37;5.82;;;4.95;;
17696;SDS011;8967;47.984;7.842;2023-05-14T09:00:04;6.47;;;5.50;;
17696;SDS011;8967;47.984;7.842;2023-05-14T09:02:38;6.45;;;5.72;;
17696;SDS011;8967;47.984;7.842;2023-05-14T09:05:08;7.35;;;5.85;;
17696;SDS011;8967;47.984;7.842;2023-05-14T09:07:38;6.57;;;5.15;;
17696;SDS011;8967;47.984;7.842;2023-05-14T09:10:06;5.50;;;4.70;;
17696;SDS011;8967;47.984;7.842;2023-05-14T09:12:34;5.22;;;4.72;;
17696;SDS011;8967;47.984;7.842;2023-05-14T09:15:01;5.50;;;4.97;;
17696;SDS011;8967;47.984;7.842;2023-05-14T09:17:28;5.57;;;4.40;;
17696;SDS011;8967;47.984;7.842;2023-05-14T09:19:55;7.88;;;5.50;;
17696;SDS011;8967;47.984;7.842;2023-05-14T09:22:24;6.72;;;5.68;;
17696;SDS011;8967;47.984;7.842;2023-05-14T09:25:02;8.40;;;5.63;;
17696;SDS011;8967;47.984;7.842;2023-05-14T09:27:31;9.13;;;5.80;;
17696;SDS011;8967;47.984;7.842;2023-05-14T09:30:05;6.30;;;5.25;;
17696;SDS011;8967;47.984;7.842;2023-05-14T09:32:37;5.97;;;5.25;;
17696;SDS011;8967;47.984;7.842;2023-05-14T09:35:11;5.45;;;4.95;;
17696;SDS011;8967;47.984;7.842;2023-05-14T09:37:43;7.53;;;5.95;;
17696;SDS011;8967;47.984;7.842;2023-05-14T09:40:13;5.30;;;4.70;;
17696;SDS011;8967;47.984;7.842;2023-05-14T09:42:41;4.57;;;4.18;;
17696;SDS011;8967;47.984;7.842;2023-05-14T09:45:08;4.47;;;4.07;;
17696;SDS011;8967;47.984;7.842;2023-05-14T09:47:37;6.82;;;5.32;;
17696;SDS011;8967;47.984;7.842;2023-05-14T09:50:04;4.82;;;4.43;;
17696;SDS011;8967;47.984;7.842;2023-05-14T09:52:32;5.20;;;4.30;;
17696;SDS011;8967;47.984;7.842;2023-05-14T09:55:01;6.45;;;5.20;;
17696;SDS011;8967;47.984;7.842;2023-05-14T09:57:28;5.97;;;5.38;;
17696;SDS011;8967;47.984;7.842;2023-05-14T09:59:55;5.65;;;5.05;;
17696;SDS011;8967;47.984;7.842;2023-05-14T10:02:23;4.75;;;4.35;;
17696;SDS011;8967;47.984;7.842;2023-05-14T10:04:51;5.53;;;4.47;;
17696;SDS011;8967;47.984;7.842;2023-05-14T10:07:23;5.50;;;4.65;;
17696;SDS011;8967;47.984;7.842;2023-05-14T10:09:56;6.53;;;4.47;;
17696;SDS011;8967;47.984;7.842;2023-05-14T10:12:31;4.30;;;3.90;;
17696;SDS011;8967;47.984;7.842;2023-05-14T10:15:00;5.93;;;4.00;;
17696;SDS011;8967;47.984;7.842;2023-05-14T10:17:30;3.70;;;3.40;;
17696;SDS011;8967;47.984;7.842;2023-05-14T10:19:58;3.70;;;3.40;;
17696;SDS011;8967;47.984;7.842;2023-05-14T10:22:29;3.53;;;2.95;;
17696;SDS011;8967;47.984;7.842;2023-05-14T10:24:58;4.20;;;3.80;;
17696;SDS011;8967;47.984;7.842;2023-05-14T10:27:26;3.63;;;3.33;;
17696;SDS011;8967;47.984;7.842;2023-05-14T10:29:54;4.07;;;3.60;;
17696;SDS011;8967;47.984;7.842;2023-05-14T10:32:22;4.45;;;4.05;;
17696;SDS011;8967;47.984;7.842;2023-05-14T10:34:50;4.03;;;3.63;;
17696;SDS011;8967;47.984;7.842;2023-05-14T10:37:21;3.65;;;3.35;;
17696;SDS011;8967;47.984;7.842;2023-05-14T10:39:50;5.35;;;3.95;;
17696;SDS011;8967;47.984;7.842;2023-05-14T10:42:19;3.58;;;3.28;;
17696;SDS011;8967;47.984;7.842;2023-05-14T10:44:48;4.28;;;3.88;;
17696;SDS011;8967;47.984;7.842;2023-05-14T10:47:19;4.10;;;3.70;;
17696;SDS011;8967;47.984;7.842;2023-05-14T10:49:50;5.45;;;3.75;;
17696;SDS011;8967;47.984;7.842;2023-05-14T10:52:19;4.43;;;4.03;;
17696;SDS011;8967;47.984;7.842;2023-05-14T10:54:50;3.60;;;3.30;;
17696;SDS011;8967;47.984;7.842;2023-05-14T10:57:21;8.82;;;4.93;;
17696;SDS011;8967;47.984;7.842;2023-05-14T10:59:50;4.28;;;3.88;;
17696;SDS011;8967;47.984;7.842;2023-05-14T11:02:23;4.50;;;4.10;;
17696;SDS011;8967;47.984;7.842;2023-05-14T11:04:51;4.10;;;3.70;;
17696;SDS011;8967;47.984;7.842;2023-05-14T11:07:23;4.38;;;3.78;;
17696;SDS011;8967;47.984;7.842;2023-05-14T11:09:52;6.50;;;5.00;;
17696;SDS011;8967;47.984;7.842;2023-05-14T11:12:24;4.60;;;3.80;;
17696;SDS011;8967;47.984;7.842;2023-05-14T11:14:52;4.15;;;3.75;;
17696;SDS011;8967;47.984;7.842;2023-05-14T11:17:19;4.13;;;3.78;;
17696;SDS011;8967;47.984;7.842;2023-05-14T11:19:48;4.18;;;3.78;;
17696;SDS011;8967;47.984;7.842;2023-05-14T11:22:15;3.80;;;3.50;;
17696;SDS011;8967;47.984;7.842;2023-05-14T11:24:42;5.90;;;4.57;;
17696;SDS011;8967;47.984;7.842;2023-05-14T11:27:09;6.03;;;5.07;;
17696;SDS011;8967;47.984;7.842;2023-05-14T11:29:36;5.38;;;4.88;;
17696;SDS011;8967;47.984;7.842;2023-05-14T11:32:04;4.85;;;3.90;;
17696;SDS011;8967;47.984;7.842;2023-05-14T11:34:31;4.38;;;3.67;;
17696;SDS011;8967;47.984;7.842;2023-05-14T11:37:04;4.07;;;3.67;;
17696;SDS011;8967;47.984;7.842;2023-05-14T11:39:31;3.60;;;3.30;;
17696;SDS011;8967;47.984;7.842;2023-05-14T11:42:01;3.05;;;2.80;;
17696;SDS011;8967;47.984;7.842;2023-05-14T11:44:29;4.63;;;3.13;;
17696;SDS011;8967;47.984;7.842;2023-05-14T11:46:56;3.45;;;3.00;;
17696;SDS011;8967;47.984;7.842;2023-05-14T11:49:24;3.08;;;2.88;;
17696;SDS011;8967;47.984;7.842;2023-05-14T11:51:55;3.42;;;3.08;;
17696;SDS011;8967;47.984;7.842;2023-05-14T11:54:25;2.92;;;2.72;;
17696;SDS011;8967;47.984;7.842;2023-05-14T11:56:53;2.95;;;2.40;;
17696;SDS011;8967;47.984;7.842;2023-05-14T11:59:21;2.60;;;2.38;;
17696;SDS011;8967;47.984;7.842;2023-05-14T12:01:49;3.17;;;2.88;;
17696;SDS011;8967;47.984;7.842;2023-05-14T12:04:17;2.53;;;2.33;;
17696;SDS011;8967;47.984;7.842;2023-05-14T12:06:48;2.58;;;2.38;;
17696;SDS011;8967;47.984;7.842;2023-05-14T12:09:16;3.60;;;2.95;;
17696;SDS011;8967;47.984;7.842;2023-05-14T12:11:45;2.97;;;2.60;;
17696;SDS011;8967;47.984;7.842;2023-05-14T12:14:13;4.13;;;2.83;;
17696;SDS011;8967;47.984;7.842;2023-05-14T12:16:42;3.50;;;3.13;;
17696;SDS011;8967;47.984;7.842;2023-05-14T12:19:10;3.22;;;2.90;;
17696;SDS011;8967;47.984;7.842;2023-05-14T12:21:39;3.38;;;3.08;;
17696;SDS011;8967;47.984;7.842;2023-05-14T12:24:08;2.90;;;2.70;;
17696;SDS011;8967;47.984;7.842;2023-05-14T12:26:36;2.60;;;2.40;;
17696;SDS011;8967;47.984;7.842;2023-05-14T12:29:05;2.45;;;2.25;;
17696;SDS011;8967;47.984;7.842;2023-05-14T12:31:32;3.85;;;2.50;;
17696;SDS011;8967;47.984;7.842;2023-05-14T12:34:00;4.82;;;2.35;;
17696;SDS011;8967;47.984;7.842;2023-05-14T12:36:27;2.75;;;2.33;;
17696;SDS011;8967;47.984;7.842;2023-05-14T12:38:59;3.17;;;1.92;;
17696;SDS011;8967;47.984;7.842;2023-05-14T12:41:28;2.65;;;2.20;;
17696;SDS011;8967;47.984;7.842;2023-05-14T12:43:56;2.10;;;2.00;;
17696;SDS011;8967;47.984;7.842;2023-05-14T12:46:24;3.15;;;2.75;;
17696;SDS011;8967;47.984;7.842;2023-05-14T12:48:52;2.95;;;2.63;;
17696;SDS011;8967;47.984;7.842;2023-05-14T12:51:20;4.72;;;2.95;;
17696;SDS011;8967;47.984;7.842;2023-05-14T12:53:47;4.95;;;2.30;;
17696;SDS011;8967;47.984;7.842;2023-05-14T12:56:18;2.28;;;2.08;;
17696;SDS011;8967;47.984;7.842;2023-05-14T12:58:45;6.03;;;2.50;;
17696;SDS011;8967;47.984;7.842;2023-05-14T13:01:12;4.65;;;2.03;;
17696;SDS011;8967;47.984;7.842;2023-05-14T13:03:40;3.33;;;1.75;;
17696;SDS011;8967;47.984;7.842;2023-05-14T13:06:07;1.80;;;1.52;;
17696;SDS011;8967;47.984;7.842;2023-05-14T13:08:34;2.25;;;1.70;;
17696;SDS011;8967;47.984;7.842;2023-05-14T13:11:01;1.60;;;1.50;;
17696;SDS011;8967;47.984;7.842;2023-05-14T13:13:28;1.95;;;1.85;;
17696;SDS011;8967;47.984;7.842;2023-05-14T13:15:55;2.03;;;1.80;;
17696;SDS011;8967;47.984;7.842;2023-05-14T13:18:22;1.50;;;1.40;;
17696;SDS011;8967;47.984;7.842;2023-05-14T13:20:52;3.25;;;1.77;;
17696;SDS011;8967;47.984;7.842;2023-05-14T13:23:20;2.05;;;1.48;;
17696;SDS011;8967;47.984;7.842;2023-05-14T13:25:46;2.90;;;1.77;;
17696;SDS011;8967;47.984;7.842;2023-05-14T13:28:13;1.85;;;1.25;;
17696;SDS011;8967;47.984;7.842;2023-05-14T13:30:40;1.63;;;1.50;;
17696;SDS011;8967;47.984;7.842;2023-05-14T13:33:27;1.58;;;1.45;;
17696;SDS011;8967;47.984;7.842;2023-05-14T13:35:56;2.50;;;1.42;;
17696;SDS011;8967;47.984;7.842;2023-05-14T13:38:23;2.95;;;1.58;;
17696;SDS011;8967;47.984;7.842;2023-05-14T13:40:49;4.57;;;2.15;;
17696;SDS011;8967;47.984;7.842;2023-05-14T13:43:19;3.53;;;2.60;;
17696;SDS011;8967;47.984;7.842;2023-05-14T13:45:45;5.07;;;2.22;;
17696;SDS011;8967;47.984;7.842;2023-05-14T13:48:12;2.30;;;2.10;;
17696;SDS011;8967;47.984;7.842;2023-05-14T13:50:39;2.65;;;2.42;;
17696;SDS011;8967;47.984;7.842;2023-05-14T13:53:07;2.42;;;2.00;;
17696;SDS011;8967;47.984;7.842;2023-05-14T13:55:34;1.98;;;1.70;;
17696;SDS011;8967;47.984;7.842;2023-05-14T13:58:01;2.00;;;1.90;;
17696;SDS011;8967;47.984;7.842;2023-05-14T14:00:28;1.85;;;1.75;;
17696;SDS011;8967;47.984;7.842;2023-05-14T14:02:55;2.67;;;2.05;;
17696;SDS011;8967;47.984;7.842;2023-05-14T14:05:22;2.13;;;1.77;;
17696;SDS011;8967;47.984;7.842;2023-05-14T14:07:52;2.20;;;2.00;;
17696;SDS011;8967;47.984;7.842;2023-05-14T14:10:21;2.20;;;2.00;;
17696;SDS011;8967;47.984;7.842;2023-05-14T14:12:48;2.72;;;2.50;;
17696;SDS011;8967;47.984;7.842;2023-05-14T14:15:15;3.55;;;2.05;;
17696;SDS011;8967;47.984;7.842;2023-05-14T14:17:44;2.50;;;2.30;;
17696;SDS011;8967;47.984;7.842;2023-05-14T14:20:11;2.20;;;2.00;;
17696;SDS011;8967;47.984;7.842;2023-05-14T14:22:38;2.75;;;2.28;;
17696;SDS011;8967;47.984;7.842;2023-05-14T14:25:05;2.40;;;2.20;;
17696;SDS011;8967;47.984;7.842;2023-05-14T14:27:35;2.60;;;2.35;;
17696;SDS011;8967;47.984;7.842;2023-05-14T14:30:03;5.25;;;2.53;;
17696;SDS011;8967;47.984;7.842;2023-05-14T14:32:43;2.53;;;2.33;;
17696;SDS011;8967;47.984;7.842;2023-05-14T14:35:11;3.67;;;2.45;;
17696;SDS011;8967;47.984;7.842;2023-05-14T14:37:41;5.32;;;2.70;;
17696;SDS011;8967;47.984;7.842;2023-05-14T14:40:13;3.67;;;2.30;;
17696;SDS011;8967;47.984;7.842;2023-05-14T14:42:42;2.70;;;2.50;;
17696;SDS011;8967;47.984;7.842;2023-05-14T14:45:09;2.38;;;2.17;;
17696;SDS011;8967;47.984;7.842;2023-05-14T14:47:41;2.55;;;2.35;;
17696;SDS011;8967;47.984;7.842;2023-05-14T14:50:10;3.05;;;2.08;;
17696;SDS011;8967;47.984;7.842;2023-05-14T14:52:37;4.32;;;2.30;;
17696;SDS011;8967;47.984;7.842;2023-05-14T14:55:05;2.17;;;1.98;;
17696;SDS011;8967;47.984;7.842;2023-05-14T14:57:32;2.58;;;1.90;;
17696;SDS011;8967;47.984;7.842;2023-05-14T15:00:00;2.20;;;2.00;;
17696;SDS011;8967;47.984;7.842;2023-05-14T15:02:27;2.10;;;2.00;;
17696;SDS011;8967;47.984;7.842;2023-05-14T15:04:54;2.55;;;2.20;;